createdAt,value
2019-01-27T00:00:22.762Z,417.50
2019-01-27T00:01:22.762Z,418.00
2019-01-27T00:02:22.730Z,417.38
2019-01-27T00:03:22.726Z,416.80
2019-01-27T00:04:22.719Z,418.66
2019-01-27T00:05:22.696Z,418.04
2019-01-27T00:06:22.698Z,417.29
2019-01-27T00:07:22.679Z,418.87
2019-01-27T00:08:22.678Z,419.10
2019-01-27T00:09:22.650Z,415.63
2019-01-27T00:10:22.640Z,415.45
2019-01-27T00:11:22.629Z,415.96
2019-01-27T00:12:22.623Z,418.39
2019-01-27T00:13:22.632Z,418.01
2019-01-27T00:14:22.606Z,417.76
2019-01-27T00:15:22.589Z,416.13
2019-01-27T00:16:22.578Z,416.19
2019-01-27T00:17:22.570Z,417.91
2019-01-27T00:18:22.582Z,417.26
2019-01-27T00:19:22.548Z,416.65
2019-01-27T00:20:22.540Z,416.81
2019-01-27T00:21:22.526Z,417.81
2019-01-27T00:22:22.522Z,414.69
2019-01-27T00:23:22.516Z,415.49
2019-01-27T00:24:22.498Z,418.34
2019-01-27T00:25:22.475Z,418.86
2019-01-27T00:26:23.066Z,419.28
2019-01-27T00:27:22.459Z,419.87
2019-01-27T00:28:23.568Z,416.50
2019-01-27T00:29:22.453Z,416.50
2019-01-27T00:30:22.435Z,417.00
2019-01-27T00:31:22.433Z,418.06
2019-01-27T00:32:22.411Z,418.43
2019-01-27T00:33:22.430Z,415.42
2019-01-27T00:34:22.399Z,418.91
2019-01-27T00:35:22.391Z,417.25
2019-01-27T00:36:22.387Z,415.04
2019-01-27T00:37:22.353Z,418.04
2019-01-27T00:38:22.348Z,417.28
2019-01-27T00:39:22.348Z,416.01
2019-01-27T00:40:22.327Z,417.03
2019-01-27T00:41:22.321Z,417.93
2019-01-27T00:42:22.304Z,416.57
2019-01-27T00:43:22.291Z,415.57
2019-01-27T00:44:22.313Z,415.35
2019-01-27T00:45:22.312Z,414.41
2019-01-27T00:46:22.268Z,417.47
2019-01-27T00:47:22.253Z,418.56
2019-01-27T00:48:22.249Z,418.29
2019-01-27T00:49:22.252Z,414.78
2019-01-27T00:50:22.224Z,416.70
2019-01-27T00:51:22.234Z,414.94
2019-01-27T00:52:22.211Z,416.26
2019-01-27T00:53:22.210Z,415.41
2019-01-27T00:54:22.204Z,418.58
2019-01-27T00:55:22.175Z,417.65
2019-01-27T00:56:22.180Z,419.13
2019-01-27T00:57:22.172Z,417.99
2019-01-27T00:58:22.145Z,415.75
2019-01-27T00:59:22.151Z,418.71
2019-01-27T01:00:22.115Z,419.08
2019-01-27T01:01:22.115Z,419.13
2019-01-27T01:02:22.096Z,417.63
2019-01-27T01:03:22.090Z,415.99
2019-01-27T01:04:22.105Z,416.17
2019-01-27T01:05:22.074Z,418.32
2019-01-27T01:06:22.050Z,416.49
2019-01-27T01:07:22.047Z,415.70
2019-01-27T01:08:22.029Z,415.27
2019-01-27T01:09:22.042Z,414.56
2019-01-27T01:10:22.025Z,417.78
2019-01-27T01:11:22.001Z,415.30
2019-01-27T01:12:21.987Z,416.77
2019-01-27T01:13:21.985Z,416.82
2019-01-27T01:14:21.985Z,415.38
2019-01-27T01:15:21.964Z,415.00
2019-01-27T01:16:21.952Z,414.48
2019-01-27T01:17:21.937Z,415.84
2019-01-27T01:18:21.926Z,415.28
2019-01-27T01:19:21.952Z,417.39
2019-01-27T01:20:21.910Z,417.85
2019-01-27T01:21:21.899Z,417.64
2019-01-27T01:22:21.900Z,416.56
2019-01-27T01:23:21.872Z,416.76
2019-01-27T01:24:21.885Z,415.94
2019-01-27T01:25:21.856Z,418.75
2019-01-27T01:26:21.841Z,419.46
2019-01-27T01:27:21.839Z,416.99
2019-01-27T01:28:21.821Z,418.40
2019-01-27T01:29:21.834Z,416.48
2019-01-27T01:30:21.803Z,417.94
2019-01-27T01:31:21.799Z,416.26
2019-01-27T01:32:21.780Z,415.36
2019-01-27T01:33:21.777Z,418.73
2019-01-27T01:34:21.784Z,415.61
2019-01-27T01:35:21.739Z,415.80
2019-01-27T01:36:21.732Z,415.18
2019-01-27T01:37:21.731Z,418.32
2019-01-27T01:38:21.712Z,417.74
2019-01-27T01:39:21.718Z,416.68
2019-01-27T01:40:21.689Z,416.62
2019-01-27T01:41:21.679Z,418.60
2019-01-27T01:42:21.684Z,419.12
2019-01-27T01:43:21.664Z,418.20
2019-01-27T01:44:21.672Z,417.89
2019-01-27T01:45:21.643Z,416.10
2019-01-27T01:46:21.639Z,415.51
2019-01-27T01:47:21.617Z,416.27
2019-01-27T01:48:21.615Z,417.87
2019-01-27T01:49:21.617Z,417.59
2019-01-27T01:50:21.601Z,416.27
2019-01-27T01:51:21.573Z,414.09
2019-01-27T01:52:21.582Z,415.96
2019-01-27T01:53:21.562Z,417.92
2019-01-27T01:54:21.592Z,418.72
2019-01-27T01:55:21.547Z,416.93
2019-01-27T01:56:21.523Z,417.46
2019-01-27T01:57:21.524Z,416.76
2019-01-27T01:58:21.510Z,416.14
2019-01-27T01:59:21.523Z,415.43
2019-01-27T02:00:21.487Z,417.03
2019-01-27T02:01:21.482Z,418.77
2019-01-27T02:02:21.483Z,418.84
2019-01-27T02:03:21.455Z,417.76
2019-01-27T02:04:21.459Z,418.55
2019-01-27T02:05:21.431Z,419.03
2019-01-27T02:06:21.426Z,416.26
2019-01-27T02:07:21.411Z,417.07
2019-01-27T02:08:21.409Z,414.94
2019-01-27T02:09:21.419Z,418.49
2019-01-27T02:10:21.376Z,417.66
2019-01-27T02:11:21.367Z,415.97
2019-01-27T02:12:21.371Z,418.86
2019-01-27T02:13:21.365Z,414.63
2019-01-27T02:14:21.353Z,416.20
2019-01-27T02:15:21.329Z,415.83
2019-01-27T02:16:21.317Z,417.92
2019-01-27T02:17:21.304Z,415.86
2019-01-27T02:18:21.299Z,419.44
2019-01-27T02:19:21.305Z,416.08
2019-01-27T02:20:21.297Z,415.50
2019-01-27T02:21:21.272Z,417.77
2019-01-27T02:22:21.255Z,415.96
2019-01-27T02:23:21.247Z,418.77
2019-01-27T02:24:21.247Z,415.92
2019-01-27T02:25:21.229Z,418.42
2019-01-27T02:26:21.218Z,418.41
2019-01-27T02:27:21.223Z,416.49
2019-01-27T02:28:21.190Z,416.41
2019-01-27T02:29:21.208Z,417.37
2019-01-27T02:30:21.185Z,417.60
2019-01-27T02:31:21.158Z,418.51
2019-01-27T02:32:21.154Z,416.53
2019-01-27T02:33:21.146Z,417.30
2019-01-27T02:34:21.156Z,418.57
2019-01-27T02:35:21.114Z,417.18
2019-01-27T02:36:21.110Z,415.93
2019-01-27T02:37:21.106Z,416.89
2019-01-27T02:38:21.087Z,416.60
2019-01-27T02:39:21.123Z,416.53
2019-01-27T02:40:21.071Z,416.39
2019-01-27T02:41:21.054Z,419.16
2019-01-27T02:42:21.039Z,417.17
2019-01-27T02:43:21.035Z,417.72
2019-01-27T02:44:21.034Z,418.49
2019-01-27T02:45:21.031Z,415.74
2019-01-27T02:46:21.002Z,416.40
2019-01-27T02:47:21.040Z,416.76
2019-01-27T02:48:21.002Z,417.88
2019-01-27T02:49:20.995Z,417.27
2019-01-27T02:50:20.978Z,418.83
2019-01-27T02:51:20.973Z,418.07
2019-01-27T02:52:20.944Z,416.77
2019-01-27T02:53:20.948Z,417.44
2019-01-27T02:54:20.935Z,416.26
2019-01-27T02:55:20.923Z,417.92
2019-01-27T02:56:20.953Z,418.46
2019-01-27T02:57:20.908Z,417.85
2019-01-27T02:58:20.877Z,417.00
2019-01-27T02:59:20.875Z,416.69
2019-01-27T03:00:20.892Z,417.66
2019-01-27T03:01:20.856Z,416.80
2019-01-27T03:02:20.850Z,418.26
2019-01-27T03:03:20.843Z,416.45
2019-01-27T03:04:20.820Z,415.86
2019-01-27T03:05:20.822Z,416.96
2019-01-27T03:06:20.801Z,417.40
2019-01-27T03:07:20.791Z,415.83
2019-01-27T03:08:20.788Z,417.43
2019-01-27T03:09:20.756Z,418.25
2019-01-27T03:10:20.761Z,414.97
2019-01-27T03:11:20.755Z,417.61
2019-01-27T03:12:20.732Z,416.99
2019-01-27T03:13:20.732Z,418.94
2019-01-27T03:14:20.719Z,416.95
2019-01-27T03:15:20.732Z,416.16
2019-01-27T03:16:20.703Z,417.15
2019-01-27T03:17:20.690Z,416.23
2019-01-27T03:18:20.675Z,417.15
2019-01-27T03:19:20.669Z,417.43
2019-01-27T03:20:20.665Z,418.83
2019-01-27T03:21:27.671Z,417.88
2019-01-27T03:22:20.628Z,418.33
2019-01-27T03:23:20.608Z,419.03
2019-01-27T03:24:20.615Z,418.78
2019-01-27T03:25:27.677Z,415.37
2019-01-27T03:26:28.633Z,416.16
2019-01-27T03:27:28.205Z,416.16
2019-01-27T03:28:28.622Z,417.13
2019-01-27T03:29:20.551Z,418.53
2019-01-27T03:30:27.657Z,417.01
2019-01-27T03:31:29.298Z,418.33
2019-01-27T03:32:28.579Z,418.99
2019-01-27T03:33:27.569Z,416.62
2019-01-27T03:34:27.565Z,416.22
2019-01-27T03:36:31.141Z,414.63
2019-01-27T03:37:31.110Z,418.26
2019-01-27T03:38:31.093Z,418.34
2019-01-27T03:39:31.084Z,417.97
2019-01-27T03:40:31.083Z,416.27
2019-01-27T03:41:31.048Z,416.66
2019-01-27T03:42:31.054Z,416.42
2019-01-27T03:43:31.051Z,419.67
2019-01-27T03:44:31.026Z,418.45
2019-01-27T03:45:31.022Z,417.70
2019-01-27T03:46:30.999Z,416.31
2019-01-27T03:47:30.991Z,417.17
2019-01-27T03:48:30.992Z,418.08
2019-01-27T03:49:30.972Z,417.21
2019-01-27T03:50:30.987Z,417.41
2019-01-27T03:51:30.943Z,417.32
2019-01-27T03:52:30.934Z,416.60
2019-01-27T03:53:30.926Z,416.72
2019-01-27T03:54:30.918Z,417.56
2019-01-27T03:55:30.925Z,416.73
2019-01-27T03:56:30.899Z,416.80
2019-01-27T03:57:30.881Z,416.53
2019-01-27T03:58:30.870Z,419.49
2019-01-27T03:59:30.873Z,417.92
2019-01-27T04:00:30.887Z,418.85
2019-01-27T04:01:30.853Z,418.81
2019-01-27T04:02:30.830Z,416.16
2019-01-27T04:03:30.828Z,416.70
2019-01-27T04:04:30.804Z,418.11
2019-01-27T04:05:30.822Z,417.01
2019-01-27T04:06:30.793Z,416.84
2019-01-27T04:07:30.778Z,417.39
2019-01-27T04:08:30.775Z,416.18
2019-01-27T04:09:30.765Z,416.44
2019-01-27T04:10:30.763Z,415.59
2019-01-27T04:11:30.735Z,416.29
2019-01-27T04:12:30.732Z,418.34
2019-01-27T04:13:30.745Z,417.42
2019-01-27T04:14:30.713Z,415.35
2019-01-27T04:15:30.707Z,416.96
2019-01-27T04:16:30.679Z,416.28
2019-01-27T04:17:30.685Z,416.93
2019-01-27T04:18:30.666Z,418.61
2019-01-27T04:19:30.678Z,415.31
2019-01-27T04:20:30.667Z,417.56
2019-01-27T04:21:30.638Z,417.87
2019-01-27T04:22:30.616Z,417.54
2019-01-27T04:23:30.630Z,416.46
2019-01-27T04:24:30.599Z,418.85
2019-01-27T04:25:30.617Z,416.97
2019-01-27T04:26:30.592Z,416.08
2019-01-27T04:27:30.588Z,419.15
2019-01-27T04:28:30.569Z,416.49
2019-01-27T04:29:30.548Z,418.01
2019-01-27T04:30:30.559Z,417.89
2019-01-27T04:31:30.543Z,418.30
2019-01-27T04:32:30.523Z,417.60
2019-01-27T04:33:30.529Z,418.08
2019-01-27T04:34:30.504Z,415.43
2019-01-27T04:35:30.528Z,417.38
2019-01-27T04:36:30.479Z,417.96
2019-01-27T04:37:30.483Z,417.10
2019-01-27T04:38:30.462Z,416.66
2019-01-27T04:39:30.468Z,418.96
2019-01-27T04:40:30.449Z,416.92
2019-01-27T04:41:30.483Z,415.74
2019-01-27T04:42:30.423Z,418.19
2019-01-27T04:43:30.404Z,416.89
2019-01-27T04:44:30.409Z,416.97
2019-01-27T04:45:30.420Z,416.93
2019-01-27T04:46:30.365Z,418.01
2019-01-27T04:47:30.360Z,418.21
2019-01-27T04:48:30.356Z,417.13
2019-01-27T04:49:30.343Z,417.52
2019-01-27T04:50:30.345Z,417.28
2019-01-27T04:51:30.323Z,415.43
2019-01-27T04:52:30.321Z,418.09
2019-01-27T04:53:30.293Z,418.65
2019-01-27T04:54:30.287Z,419.16
2019-01-27T04:55:30.300Z,416.80
2019-01-27T04:56:30.271Z,415.41
2019-01-27T04:57:30.251Z,419.83
2019-01-27T04:58:30.247Z,417.00
2019-01-27T04:59:30.227Z,419.19
2019-01-27T05:00:30.246Z,417.92
2019-01-27T05:01:30.224Z,418.29
2019-01-27T05:02:30.211Z,419.28
2019-01-27T05:03:30.203Z,418.72
2019-01-27T05:04:30.190Z,417.29
2019-01-27T05:05:30.202Z,418.11
2019-01-27T05:06:30.168Z,418.88
2019-01-27T05:07:30.165Z,416.63
2019-01-27T05:08:30.146Z,417.89
2019-01-27T05:09:30.126Z,418.37
2019-01-27T05:10:30.140Z,418.11
2019-01-27T05:11:30.132Z,419.35
2019-01-27T05:12:30.108Z,416.75
2019-01-27T05:13:30.089Z,416.58
2019-01-27T05:14:30.079Z,419.74
2019-01-27T05:15:30.064Z,416.85
2019-01-27T05:16:30.072Z,418.49
2019-01-27T05:17:30.047Z,416.90
2019-01-27T05:18:30.034Z,417.58
2019-01-27T05:19:30.025Z,417.19
2019-01-27T05:20:30.013Z,416.93
2019-01-27T05:21:30.022Z,418.43
2019-01-27T05:22:30.024Z,417.85
2019-01-27T05:23:29.989Z,417.34
2019-01-27T05:24:29.969Z,417.70
2019-01-27T05:25:29.975Z,418.16
2019-01-27T05:26:29.991Z,417.97
2019-01-27T05:27:29.943Z,418.30
2019-01-27T05:28:29.927Z,417.80
2019-01-27T05:29:29.919Z,418.62
2019-01-27T05:30:29.903Z,417.81
2019-01-27T05:31:29.909Z,416.37
2019-01-27T05:32:29.969Z,417.37
2019-01-27T05:33:29.879Z,417.45
2019-01-27T05:34:29.869Z,417.67
2019-01-27T05:35:29.865Z,418.98
2019-01-27T05:36:29.866Z,417.31
2019-01-27T05:37:29.834Z,418.09
2019-01-27T05:38:29.827Z,417.84
2019-01-27T05:39:29.815Z,416.19
2019-01-27T05:40:29.803Z,420.22
2019-01-27T05:41:29.808Z,417.86
2019-01-27T05:42:29.783Z,419.32
2019-01-27T05:43:29.777Z,419.29
2019-01-27T05:44:29.767Z,419.35
2019-01-27T05:45:29.751Z,417.09
2019-01-27T05:46:37.819Z,417.39
2019-01-27T05:47:29.740Z,418.14
2019-01-27T05:48:29.735Z,418.24
2019-01-27T05:49:29.733Z,419.63
2019-01-27T05:50:29.699Z,417.27
2019-01-27T05:51:30.025Z,418.06
2019-01-27T05:52:29.684Z,419.02
2019-01-27T05:53:29.682Z,418.01
2019-01-27T05:54:29.684Z,418.45
2019-01-27T05:55:29.649Z,417.76
2019-01-27T05:56:29.658Z,418.62
2019-01-27T05:57:29.642Z,418.64
2019-01-27T05:58:29.622Z,419.19
2019-01-27T05:59:29.609Z,420.00
2019-01-27T06:00:29.610Z,418.50
2019-01-27T06:01:29.598Z,417.42
2019-01-27T06:02:29.581Z,417.88
2019-01-27T06:03:29.573Z,419.61
2019-01-27T06:04:29.575Z,419.15
2019-01-27T06:05:29.547Z,419.43
2019-01-27T06:06:29.562Z,417.56
2019-01-27T06:07:29.522Z,417.52
2019-01-27T06:08:29.508Z,419.97
2019-01-27T06:09:29.502Z,418.67
2019-01-27T06:10:29.502Z,418.48
2019-01-27T06:11:29.487Z,418.89
2019-01-27T06:12:29.467Z,420.30
2019-01-27T06:13:29.451Z,420.18
2019-01-27T06:14:29.448Z,417.47
2019-01-27T06:15:29.462Z,418.59
2019-01-27T06:16:29.444Z,419.24
2019-01-27T06:17:29.409Z,418.87
2019-01-27T06:18:29.414Z,418.89
2019-01-27T06:19:29.402Z,418.77
2019-01-27T06:20:29.384Z,417.97
2019-01-27T06:21:29.412Z,419.30
2019-01-27T06:22:29.366Z,417.59
2019-01-27T06:23:29.352Z,419.91
2019-01-27T06:24:29.349Z,418.96
2019-01-27T06:25:29.343Z,418.21
2019-01-27T06:26:29.382Z,420.42
2019-01-27T06:27:29.326Z,418.61
2019-01-27T06:28:29.299Z,418.83
2019-01-27T06:29:29.292Z,418.23
2019-01-27T06:30:29.288Z,419.52
2019-01-27T06:31:29.287Z,418.70
2019-01-27T06:32:29.266Z,419.33
2019-01-27T06:33:29.258Z,418.81
2019-01-27T06:34:29.257Z,419.44
2019-01-27T06:35:29.257Z,419.45
2019-01-27T06:36:29.525Z,419.68
2019-01-27T06:37:29.207Z,419.04
2019-01-27T06:38:29.195Z,420.59
2019-01-27T06:39:29.187Z,418.83
2019-01-27T06:40:29.177Z,419.53
2019-01-27T06:41:29.178Z,418.62
2019-01-27T06:42:29.179Z,418.73
2019-01-27T06:43:29.141Z,420.08
2019-01-27T06:44:29.134Z,419.74
2019-01-27T06:45:29.121Z,419.58
2019-01-27T06:46:29.128Z,418.56
2019-01-27T06:47:29.110Z,420.80
2019-01-27T06:48:29.111Z,419.66
2019-01-27T06:49:29.084Z,420.33
2019-01-27T06:50:29.061Z,419.49
2019-01-27T06:51:29.075Z,420.15
2019-01-27T06:52:29.061Z,418.90
2019-01-27T06:53:29.057Z,419.75
2019-01-27T06:54:29.028Z,418.54
2019-01-27T06:55:29.033Z,418.39
2019-01-27T06:56:29.025Z,419.01
2019-01-27T06:57:28.994Z,419.59
2019-01-27T06:58:28.988Z,419.65
2019-01-27T06:59:28.971Z,418.45
2019-01-27T07:00:28.958Z,418.58
2019-01-27T07:01:28.962Z,419.23
2019-01-27T07:02:29.651Z,419.09
2019-01-27T07:03:28.934Z,419.28
2019-01-27T07:04:28.938Z,418.56
2019-01-27T07:05:28.913Z,419.04
2019-01-27T07:06:28.918Z,419.18
2019-01-27T07:07:28.894Z,419.29
2019-01-27T07:08:28.886Z,419.93
2019-01-27T07:09:28.877Z,418.80
2019-01-27T07:10:28.867Z,420.48
2019-01-27T07:11:28.875Z,419.08
2019-01-27T07:12:28.829Z,419.11
2019-01-27T07:13:28.830Z,420.97
2019-01-27T07:14:28.820Z,419.32
2019-01-27T07:15:28.806Z,419.32
2019-01-27T07:16:28.801Z,418.88
2019-01-27T07:17:28.804Z,420.59
2019-01-27T07:18:28.773Z,419.18
2019-01-27T07:19:28.767Z,418.69
2019-01-27T07:20:28.767Z,421.43
2019-01-27T07:21:28.741Z,420.94
2019-01-27T07:22:28.777Z,420.01
2019-01-27T07:23:36.761Z,420.18
2019-01-27T07:24:35.775Z,419.80
2019-01-27T07:25:28.708Z,420.26
2019-01-27T07:26:28.696Z,419.86
2019-01-27T07:27:28.697Z,419.71
2019-01-27T07:28:28.694Z,418.53
2019-01-27T07:29:28.678Z,418.82
2019-01-27T07:30:28.663Z,420.57
2019-01-27T07:31:28.636Z,419.75
2019-01-27T07:32:28.643Z,419.40
2019-01-27T07:33:28.641Z,418.67
2019-01-27T07:34:28.616Z,420.50
2019-01-27T07:35:28.594Z,420.05
2019-01-27T07:36:28.586Z,420.48
2019-01-27T07:37:28.600Z,419.15
2019-01-27T07:38:28.586Z,418.40
2019-01-27T07:39:28.561Z,419.36
2019-01-27T07:40:28.551Z,420.11
2019-01-27T07:41:28.546Z,418.98
2019-01-27T07:42:28.533Z,419.93
2019-01-27T07:43:28.512Z,419.85
2019-01-27T07:44:28.527Z,419.47
2019-01-27T07:45:28.493Z,419.01
2019-01-27T07:46:28.502Z,419.34
2019-01-27T07:47:28.497Z,420.39
2019-01-27T07:48:28.468Z,420.08
2019-01-27T07:49:28.446Z,417.73
2019-01-27T07:50:28.448Z,418.12
2019-01-27T07:51:28.438Z,418.65
2019-01-27T07:52:28.444Z,420.22
2019-01-27T07:53:28.407Z,419.24
2019-01-27T07:54:28.407Z,419.46
2019-01-27T07:55:28.382Z,418.50
2019-01-27T07:56:28.373Z,420.54
2019-01-27T07:57:28.375Z,419.38
2019-01-27T07:58:28.362Z,419.08
2019-01-27T07:59:28.343Z,419.90
2019-01-27T08:00:28.329Z,418.41
2019-01-27T08:01:28.321Z,418.90
2019-01-27T08:02:28.333Z,418.39
2019-01-27T08:03:28.316Z,418.65
2019-01-27T08:04:28.296Z,420.27
2019-01-27T08:05:28.277Z,419.65
2019-01-27T08:06:28.282Z,419.27
2019-01-27T08:07:28.273Z,419.69
2019-01-27T08:08:28.256Z,418.33
2019-01-27T08:09:28.262Z,418.92
2019-01-27T08:10:28.235Z,420.25
2019-01-27T08:11:28.227Z,417.65
2019-01-27T08:12:28.230Z,419.86
2019-01-27T08:13:28.212Z,419.03
2019-01-27T08:14:28.196Z,419.18
2019-01-27T08:15:28.192Z,419.20
2019-01-27T08:16:28.167Z,419.43
2019-01-27T08:17:28.166Z,418.67
2019-01-27T08:18:28.152Z,418.62
2019-01-27T08:19:28.136Z,419.04
2019-01-27T08:20:28.134Z,418.88
2019-01-27T08:21:28.117Z,419.05
2019-01-27T08:22:28.114Z,421.21
2019-01-27T08:23:28.094Z,419.04
2019-01-27T08:24:28.080Z,418.41
2019-01-27T08:25:28.078Z,420.21
2019-01-27T08:26:28.085Z,419.92
2019-01-27T08:27:28.073Z,420.11
2019-01-27T08:28:28.037Z,419.58
2019-01-27T08:29:28.035Z,419.13
2019-01-27T08:30:28.023Z,420.33
2019-01-27T08:31:28.025Z,420.78
2019-01-27T08:32:28.028Z,420.42
2019-01-27T08:33:27.995Z,420.60
2019-01-27T08:34:27.987Z,418.50
2019-01-27T08:35:27.973Z,420.34
2019-01-27T08:36:27.965Z,420.11
2019-01-27T08:37:27.963Z,418.84
2019-01-27T08:38:27.937Z,420.24
2019-01-27T08:39:27.934Z,419.30
2019-01-27T08:40:27.913Z,419.82
2019-01-27T08:41:27.913Z,418.73
2019-01-27T08:42:27.919Z,420.15
2019-01-27T08:43:27.889Z,418.60
2019-01-27T08:44:35.912Z,419.71
2019-01-27T08:45:36.138Z,418.46
2019-01-27T08:46:27.844Z,420.18
2019-01-27T08:47:27.852Z,419.80
2019-01-27T08:48:27.847Z,420.11
2019-01-27T08:49:27.817Z,420.00
2019-01-27T08:50:27.805Z,419.38
2019-01-27T08:51:27.812Z,419.28
2019-01-27T08:52:27.817Z,420.21
2019-01-27T08:53:27.817Z,418.95
2019-01-27T08:54:27.773Z,418.91
2019-01-27T08:55:27.752Z,421.61
2019-01-27T08:56:27.748Z,419.43
2019-01-27T08:57:27.753Z,419.36
2019-01-27T08:58:27.724Z,419.80
2019-01-27T08:59:27.744Z,420.95
2019-01-27T09:00:27.720Z,418.84
2019-01-27T09:01:27.700Z,416.54
2019-01-27T09:02:27.702Z,419.08
2019-01-27T09:03:27.684Z,420.32
2019-01-27T09:04:27.679Z,420.18
2019-01-27T09:05:27.671Z,421.12
2019-01-27T09:06:27.639Z,418.95
2019-01-27T09:07:27.639Z,421.18
2019-01-27T09:08:27.629Z,419.96
2019-01-27T09:09:27.604Z,419.51
2019-01-27T09:10:27.613Z,420.67
2019-01-27T09:11:27.603Z,420.77
2019-01-27T09:12:27.594Z,419.98
2019-01-27T09:13:27.566Z,422.30
2019-01-27T09:14:27.565Z,420.61
2019-01-27T09:15:27.545Z,420.56
2019-01-27T09:16:27.545Z,421.76
2019-01-27T09:17:34.610Z,420.28
2019-01-27T09:18:27.534Z,420.97
2019-01-27T09:19:27.517Z,420.70
2019-01-27T09:20:28.141Z,421.04
2019-01-27T09:21:27.477Z,421.30
2019-01-27T09:22:27.497Z,419.99
2019-01-27T09:23:27.461Z,419.28
2019-01-27T09:24:27.490Z,421.03
2019-01-27T09:25:27.540Z,420.98
2019-01-27T09:26:27.436Z,420.72
2019-01-27T09:27:27.424Z,420.81
2019-01-27T09:28:27.427Z,420.14
2019-01-27T09:29:27.408Z,420.48
2019-01-27T09:30:27.427Z,420.47
2019-01-27T09:31:27.370Z,421.18
2019-01-27T09:32:27.384Z,420.33
2019-01-27T09:33:27.363Z,420.10
2019-01-27T09:34:27.345Z,419.93
2019-01-27T09:35:27.333Z,419.78
2019-01-27T09:36:27.331Z,420.59
2019-01-27T09:37:27.310Z,419.10
2019-01-27T09:38:27.314Z,420.58
2019-01-27T09:39:27.297Z,420.44
2019-01-27T09:40:27.290Z,419.85
2019-01-27T09:41:27.279Z,419.07
2019-01-27T09:42:27.280Z,420.70
2019-01-27T09:43:28.911Z,419.00
2019-01-27T09:44:27.244Z,419.79
2019-01-27T09:45:27.222Z,419.95
2019-01-27T09:46:27.220Z,420.23
2019-01-27T09:47:27.213Z,419.86
2019-01-27T09:48:27.218Z,421.01
2019-01-27T09:49:27.183Z,420.19
2019-01-27T09:50:27.189Z,418.32
2019-01-27T09:51:27.872Z,421.00
2019-01-27T09:52:27.159Z,419.26
2019-01-27T09:53:27.168Z,421.12
2019-01-27T09:54:27.151Z,421.06
2019-01-27T09:55:27.128Z,419.91
2019-01-27T09:56:27.113Z,420.64
2019-01-27T09:57:27.122Z,416.46
2019-01-27T09:58:27.109Z,421.14
2019-01-27T09:59:27.089Z,419.70
2019-01-27T10:00:27.071Z,420.09
2019-01-27T10:01:27.065Z,419.53
2019-01-27T10:02:27.050Z,419.68
2019-01-27T10:03:27.059Z,418.53
2019-01-27T10:04:27.038Z,420.72
2019-01-27T10:05:27.025Z,418.90
2019-01-27T10:06:27.035Z,419.90
2019-01-27T10:07:27.014Z,418.46
2019-01-27T10:08:27.020Z,419.36
2019-01-27T10:09:26.972Z,419.68
2019-01-27T10:10:26.959Z,420.49
2019-01-27T10:11:26.958Z,419.64
2019-01-27T10:12:26.968Z,420.03
2019-01-27T10:13:26.968Z,418.87
2019-01-27T10:14:26.927Z,420.21
2019-01-27T10:15:26.921Z,419.61
2019-01-27T10:16:26.912Z,419.48
2019-01-27T10:17:26.897Z,418.69
2019-01-27T10:18:26.916Z,420.85
2019-01-27T10:19:26.878Z,418.58
2019-01-27T10:20:26.858Z,419.80
2019-01-27T10:21:26.872Z,418.78
2019-01-27T10:22:27.668Z,419.17
2019-01-27T10:23:26.838Z,419.13
2019-01-27T10:24:26.831Z,419.73
2019-01-27T10:25:26.815Z,420.21
2019-01-27T10:26:26.806Z,419.54
2019-01-27T10:27:26.791Z,419.35
2019-01-27T10:28:26.810Z,420.08
2019-01-27T10:29:26.786Z,418.06
2019-01-27T10:30:26.773Z,419.60
2019-01-27T10:31:26.784Z,420.31
2019-01-27T10:32:26.740Z,420.02
2019-01-27T10:33:26.773Z,420.39
2019-01-27T10:34:26.725Z,420.39
2019-01-27T10:35:26.729Z,420.98
2019-01-27T10:36:26.711Z,420.15
2019-01-27T10:37:26.691Z,418.67
2019-01-27T10:38:26.693Z,419.06
2019-01-27T10:39:26.664Z,419.08
2019-01-27T10:40:26.657Z,420.87
2019-01-27T10:41:26.650Z,419.52
2019-01-27T10:42:26.650Z,419.19
2019-01-27T10:43:26.650Z,419.78
2019-01-27T10:44:26.616Z,418.88
2019-01-27T10:45:26.606Z,419.51
2019-01-27T10:46:26.593Z,419.05
2019-01-27T10:47:26.581Z,419.69
2019-01-27T10:48:26.587Z,419.90
2019-01-27T10:49:26.557Z,418.81
2019-01-27T10:50:26.558Z,419.91
2019-01-27T10:51:26.544Z,419.54
2019-01-27T10:52:26.520Z,421.31
2019-01-27T10:53:26.532Z,418.88
2019-01-27T10:54:26.509Z,420.68
2019-01-27T10:55:26.484Z,421.20
2019-01-27T10:56:26.473Z,420.37
2019-01-27T10:57:26.474Z,419.29
2019-01-27T10:58:26.484Z,419.07
2019-01-27T10:59:26.440Z,419.33
2019-01-27T11:00:26.440Z,419.79
2019-01-27T11:01:26.447Z,419.05
2019-01-27T11:02:26.429Z,420.02
2019-01-27T11:03:26.418Z,419.24
2019-01-27T11:04:26.391Z,420.33
2019-01-27T11:05:26.390Z,421.43
2019-01-27T11:06:34.439Z,420.43
2019-01-27T11:07:26.364Z,417.77
2019-01-27T11:08:26.362Z,420.06
2019-01-27T11:09:26.344Z,420.51
2019-01-27T11:10:34.426Z,422.06
2019-01-27T11:11:26.323Z,418.79
2019-01-27T11:12:26.326Z,420.86
2019-01-27T11:13:26.327Z,420.07
2019-01-27T11:14:33.339Z,418.00
2019-01-27T11:15:26.308Z,420.73
2019-01-27T11:16:26.278Z,420.04
2019-01-27T11:17:26.251Z,418.73
2019-01-27T11:18:27.241Z,418.89
2019-01-27T11:19:26.243Z,418.82
2019-01-27T11:20:26.228Z,419.41
2019-01-27T11:21:26.211Z,420.28
2019-01-27T11:22:26.474Z,419.04
2019-01-27T11:23:26.247Z,420.29
2019-01-27T11:24:26.197Z,423.82
2019-01-27T11:25:26.185Z,422.13
2019-01-27T11:26:26.163Z,421.06
2019-01-27T11:27:32.831Z,421.12
2019-01-27T11:28:27.170Z,420.05
2019-01-27T11:29:26.129Z,420.75
2019-01-27T11:30:26.128Z,419.70
2019-01-27T11:31:26.125Z,420.64
2019-01-27T11:32:26.101Z,420.59
2019-01-27T11:33:26.103Z,419.21
2019-01-27T11:34:26.096Z,420.81
2019-01-27T11:35:26.070Z,420.45
2019-01-27T11:36:26.068Z,421.20
2019-01-27T11:37:26.057Z,418.48
2019-01-27T11:38:26.047Z,421.10
2019-01-27T11:39:26.054Z,419.31
2019-01-27T11:40:26.022Z,421.86
2019-01-27T11:41:26.014Z,420.39
2019-01-27T11:42:26.011Z,419.90
2019-01-27T11:43:25.994Z,420.50
2019-01-27T11:44:25.982Z,421.41
2019-01-27T11:45:26.057Z,419.12
2019-01-27T11:46:25.979Z,419.15
2019-01-27T11:47:25.941Z,419.93
2019-01-27T11:48:25.989Z,421.89
2019-01-27T11:49:25.956Z,420.09
2019-01-27T11:50:25.914Z,418.53
2019-01-27T11:51:25.922Z,421.37
2019-01-27T11:52:25.898Z,421.12
2019-01-27T11:53:25.894Z,419.62
2019-01-27T11:54:25.901Z,419.31
2019-01-27T11:55:25.863Z,420.26
2019-01-27T11:56:25.851Z,418.85
2019-01-27T11:57:25.833Z,420.97
2019-01-27T11:58:25.826Z,420.89
2019-01-27T11:59:25.831Z,421.81
2019-01-27T12:00:25.803Z,420.38
2019-01-27T12:01:25.801Z,421.28
2019-01-27T12:02:25.793Z,418.72
2019-01-27T12:03:25.780Z,417.73
2019-01-27T12:04:25.771Z,420.69
2019-01-27T12:05:25.759Z,418.67
2019-01-27T12:06:25.747Z,421.94
2019-01-27T12:07:25.731Z,421.49
2019-01-27T12:08:25.719Z,420.73
2019-01-27T12:09:25.717Z,418.64
2019-01-27T12:10:25.694Z,419.83
2019-01-27T12:11:25.696Z,420.51
2019-01-27T12:12:25.674Z,419.41
2019-01-27T12:13:25.655Z,420.38
2019-01-27T12:14:25.662Z,420.58
2019-01-27T12:15:25.655Z,420.97
2019-01-27T12:16:25.650Z,418.87
2019-01-27T12:17:25.633Z,419.23
2019-01-27T12:18:25.615Z,420.71
2019-01-27T12:19:25.622Z,420.57
2019-01-27T12:20:25.586Z,421.42
2019-01-27T12:21:25.594Z,420.42
2019-01-27T12:22:25.580Z,421.14
2019-01-27T12:23:25.568Z,420.75
2019-01-27T12:24:25.577Z,419.70
2019-01-27T12:25:25.550Z,418.87
2019-01-27T12:26:25.545Z,417.73
2019-01-27T12:27:25.529Z,421.64
2019-01-27T12:28:25.516Z,418.65
2019-01-27T12:29:25.653Z,420.41